createdAt,value
2017-07-05T00:00:03.602Z,17.70
2017-07-05T00:00:07.841Z,17.80
2017-07-05T00:00:12.076Z,17.70
2017-07-05T00:00:16.327Z,17.53
2017-07-05T00:00:20.560Z,17.35
2017-07-05T00:00:24.806Z,17.20
2017-07-05T00:00:29.048Z,17.40
2017-07-05T00:00:33.306Z,17.97
2017-07-05T00:00:38.386Z,18.10
2017-07-05T00:00:43.363Z,18.27
2017-07-05T00:00:47.598Z,18.30
2017-07-05T00:00:51.872Z,18.45
2017-07-05T00:00:56.133Z,18.47
2017-07-05T00:01:00.400Z,18.75
2017-07-05T00:01:04.671Z,18.95
2017-07-05T00:01:08.939Z,18.95
2017-07-05T00:01:13.186Z,19.00
2017-07-05T00:01:17.444Z,19.00
2017-07-05T00:01:21.682Z,19.10
2017-07-05T00:01:25.921Z,19.25
2017-07-05T00:01:30.199Z,18.80
2017-07-05T00:01:34.455Z,18.70
2017-07-05T00:01:39.445Z,18.70
2017-07-05T00:01:43.702Z,18.57
2017-07-05T00:01:47.943Z,18.40
2017-07-05T00:01:52.221Z,18.33
2017-07-05T00:01:56.457Z,18.50
2017-07-05T00:02:00.707Z,18.55
2017-07-05T00:02:04.954Z,18.60
2017-07-05T00:02:09.213Z,18.50
2017-07-05T00:02:13.460Z,18.75
2017-07-05T00:02:17.707Z,18.90
2017-07-05T00:02:21.952Z,18.80
2017-07-05T00:02:26.185Z,18.70
2017-07-05T00:02:30.448Z,18.70
2017-07-05T00:02:34.702Z,18.85
2017-07-05T00:02:38.966Z,18.70
2017-07-05T00:02:43.212Z,18.30
2017-07-05T00:02:47.455Z,18.40
2017-07-05T00:02:51.736Z,18.50
2017-07-05T00:02:56.003Z,18.33
2017-07-05T00:03:00.250Z,18.05
2017-07-05T00:03:04.518Z,18.05
2017-07-05T00:03:08.741Z,18.27
2017-07-05T00:03:12.985Z,18.10
2017-07-05T00:03:17.239Z,18.05
2017-07-05T00:03:21.474Z,18.20
2017-07-05T00:03:26.494Z,18.47
2017-07-05T00:03:31.501Z,18.50
2017-07-05T00:03:36.503Z,18.37
2017-07-05T00:03:40.756Z,18.40
2017-07-05T00:03:45.003Z,18.45
2017-07-05T00:03:49.266Z,18.20
2017-07-05T00:03:53.523Z,18.40
2017-07-05T00:03:58.535Z,18.50
2017-07-05T00:04:02.792Z,18.50
2017-07-05T00:04:07.045Z,18.30
2017-07-05T00:04:12.059Z,18.00
2017-07-05T00:04:17.084Z,17.83
2017-07-05T00:04:22.078Z,17.83
2017-07-05T00:04:26.333Z,17.47
2017-07-05T00:04:30.586Z,17.50
2017-07-05T00:04:34.855Z,17.40
2017-07-05T00:04:39.107Z,17.40
2017-07-05T00:04:43.353Z,17.55
2017-07-05T00:04:47.631Z,17.60
2017-07-05T00:04:51.857Z,17.65
2017-07-05T00:04:56.111Z,17.60
2017-07-05T00:05:00.344Z,17.73
2017-07-05T00:05:04.603Z,17.70
2017-07-05T00:05:08.859Z,17.75
2017-07-05T00:05:13.111Z,18.00
2017-07-05T00:05:17.367Z,18.00
2017-07-05T00:05:21.601Z,17.70
2017-07-05T00:05:25.859Z,17.75
2017-07-05T00:05:30.107Z,17.90
2017-07-05T00:05:35.127Z,18.13
2017-07-05T00:05:40.141Z,18.27
2017-07-05T00:05:45.165Z,18.37
2017-07-05T00:05:50.169Z,18.40
2017-07-05T00:05:55.197Z,18.17
2017-07-05T00:05:59.437Z,18.00
2017-07-05T00:06:03.685Z,17.90
2017-07-05T00:06:07.951Z,17.95
2017-07-05T00:06:12.223Z,17.93
2017-07-05T00:06:16.487Z,18.25
2017-07-05T00:06:21.509Z,18.55
2017-07-05T00:06:26.598Z,18.77
2017-07-05T00:06:30.829Z,18.43
2017-07-05T00:06:35.865Z,18.17
2017-07-05T00:06:40.132Z,18.30
2017-07-05T00:06:44.386Z,18.40
2017-07-05T00:06:48.623Z,18.10
2017-07-05T00:06:52.858Z,18.00
2017-07-05T00:06:57.128Z,18.03
2017-07-05T00:07:01.363Z,18.40
2017-07-05T00:07:05.618Z,18.40
2017-07-05T00:07:09.860Z,18.60
2017-07-05T00:07:14.130Z,18.50
2017-07-05T00:07:18.389Z,18.30
2017-07-05T00:07:22.664Z,18.25
2017-07-05T00:07:26.912Z,18.20
2017-07-05T00:07:31.155Z,18.45
2017-07-05T00:07:35.392Z,18.30
2017-07-05T00:07:39.647Z,18.15
2017-07-05T00:07:44.658Z,18.00
2017-07-05T00:07:49.661Z,18.40
2017-07-05T00:07:53.956Z,18.60
2017-07-05T00:07:58.203Z,18.60
2017-07-05T00:08:02.439Z,18.70
2017-07-05T00:08:06.673Z,18.65
2017-07-05T00:08:11.714Z,18.27
2017-07-05T00:08:15.945Z,18.33
2017-07-05T00:08:20.196Z,18.40
2017-07-05T00:08:24.469Z,18.50
2017-07-05T00:08:28.714Z,18.80
2017-07-05T00:08:33.743Z,18.70
2017-07-05T00:08:37.981Z,18.73
2017-07-05T00:08:42.236Z,18.90
2017-07-05T00:08:46.470Z,18.90
2017-07-05T00:08:50.857Z,18.73
2017-07-05T00:08:55.098Z,18.60
2017-07-05T00:08:59.326Z,18.50
2017-07-05T00:09:04.333Z,18.60
2017-07-05T00:09:09.359Z,18.70
2017-07-05T00:09:14.367Z,18.90
2017-07-05T00:09:18.911Z,18.77
2017-07-05T00:09:23.266Z,18.80
2017-07-05T00:09:27.547Z,18.70
2017-07-05T00:09:31.821Z,18.60
2017-07-05T00:09:36.063Z,18.60
2017-07-05T00:09:40.303Z,18.50
2017-07-05T00:09:44.567Z,18.50
2017-07-05T00:09:48.805Z,18.40
2017-07-05T00:09:53.060Z,18.65
2017-07-05T00:09:57.305Z,18.70
2017-07-05T00:10:01.563Z,18.70
2017-07-05T00:10:05.822Z,18.80
2017-07-05T00:10:10.063Z,18.95
2017-07-05T00:10:14.304Z,18.93
2017-07-05T00:10:18.563Z,18.90
2017-07-05T00:10:22.797Z,18.80
2017-07-05T00:10:27.052Z,18.75
2017-07-05T00:10:31.301Z,18.80
2017-07-05T00:10:36.027Z,18.70
2017-07-05T00:10:40.269Z,18.53
2017-07-05T00:10:44.531Z,18.40
2017-07-05T00:10:48.777Z,18.10
2017-07-05T00:10:53.008Z,17.85
2017-07-05T00:10:57.276Z,17.73
2017-07-05T00:11:01.540Z,17.70
2017-07-05T00:11:05.785Z,17.60
2017-07-05T00:11:10.030Z,17.55
2017-07-05T00:11:14.327Z,17.67
2017-07-05T00:11:18.601Z,17.70
2017-07-05T00:11:22.814Z,17.40
2017-07-05T00:11:27.053Z,17.33
2017-07-05T00:11:31.334Z,17.30
2017-07-05T00:11:35.590Z,17.40
2017-07-05T00:11:39.825Z,17.60
2017-07-05T00:11:44.090Z,17.73
2017-07-05T00:11:48.317Z,18.00
2017-07-05T00:11:52.571Z,18.10
2017-07-05T00:11:56.876Z,18.30
2017-07-05T00:12:01.088Z,18.40
2017-07-05T00:12:06.119Z,18.60
2017-07-05T00:12:11.151Z,18.27
2017-07-05T00:12:15.400Z,18.07
2017-07-05T00:12:19.655Z,18.00
2017-07-05T00:12:23.880Z,18.17
2017-07-05T00:12:28.147Z,18.50
2017-07-05T00:12:32.400Z,18.20
2017-07-05T00:12:36.709Z,18.45
2017-07-05T00:12:40.962Z,18.40
2017-07-05T00:12:45.206Z,18.50
2017-07-05T00:12:49.448Z,18.50
2017-07-05T00:12:53.731Z,18.45
2017-07-05T00:12:58.734Z,18.40
2017-07-05T00:13:02.982Z,18.13
2017-07-05T00:13:07.240Z,17.75
2017-07-05T00:13:11.475Z,17.80
2017-07-05T00:13:15.712Z,18.03
2017-07-05T00:13:19.962Z,18.20
2017-07-05T00:13:24.987Z,17.95
2017-07-05T00:13:29.225Z,17.77
2017-07-05T00:13:33.462Z,17.70
2017-07-05T00:13:37.713Z,17.53
2017-07-05T00:13:41.967Z,17.55
2017-07-05T00:13:46.222Z,17.65
2017-07-05T00:13:50.474Z,17.80
2017-07-05T00:13:55.491Z,17.83
2017-07-05T00:14:00.514Z,17.80
2017-07-05T00:14:05.535Z,18.07
2017-07-05T00:14:10.560Z,18.37
2017-07-05T00:14:14.814Z,18.17
2017-07-05T00:14:19.074Z,18.15
2017-07-05T00:14:23.333Z,18.35
2017-07-05T00:14:27.616Z,18.30
2017-07-05T00:14:31.876Z,18.50
2017-07-05T00:14:36.149Z,18.60
2017-07-05T00:14:41.175Z,18.43
2017-07-05T00:14:46.190Z,18.77
2017-07-05T00:14:51.196Z,18.77
2017-07-05T00:14:56.206Z,18.90
2017-07-05T00:15:00.478Z,18.80
2017-07-05T00:15:04.721Z,18.50
2017-07-05T00:15:09.797Z,18.40
2017-07-05T00:15:14.141Z,18.37
2017-07-05T00:15:19.163Z,18.20
2017-07-05T00:15:23.453Z,18.23
2017-07-05T00:15:28.465Z,18.45
2017-07-05T00:15:32.721Z,18.77
2017-07-05T00:15:36.953Z,18.90
2017-07-05T00:15:41.200Z,19.00
2017-07-05T00:15:45.472Z,18.55
2017-07-05T00:15:50.491Z,18.60
2017-07-05T00:15:55.493Z,18.40
2017-07-05T00:15:59.744Z,18.33
2017-07-05T00:16:03.969Z,18.30
2017-07-05T00:16:08.224Z,18.30
2017-07-05T00:16:12.461Z,18.50
2017-07-05T00:16:16.725Z,18.90
2017-07-05T00:16:21.735Z,19.00
2017-07-05T00:16:25.974Z,18.87
2017-07-05T00:16:30.229Z,18.50
2017-07-05T00:16:35.256Z,18.35
2017-07-05T00:16:39.509Z,18.00
2017-07-05T00:16:43.741Z,17.90
2017-07-05T00:16:48.749Z,17.77
2017-07-05T00:16:53.005Z,17.80
2017-07-05T00:16:57.264Z,17.95
2017-07-05T00:17:01.489Z,18.40
2017-07-05T00:17:05.771Z,18.80
2017-07-05T00:17:10.003Z,18.90
2017-07-05T00:17:14.252Z,18.75
2017-07-05T00:17:18.485Z,18.45
2017-07-05T00:17:22.743Z,18.30
2017-07-05T00:17:27.004Z,18.30
2017-07-05T00:17:31.245Z,18.40
2017-07-05T00:17:35.496Z,18.30
2017-07-05T00:17:39.770Z,18.40
2017-07-05T00:17:44.774Z,18.50
2017-07-05T00:17:49.795Z,18.70
2017-07-05T00:17:54.817Z,18.70
2017-07-05T00:17:59.855Z,18.63
2017-07-05T00:18:04.879Z,18.37
2017-07-05T00:18:09.130Z,18.37
2017-07-05T00:18:13.370Z,18.35
2017-07-05T00:18:18.387Z,18.65
2017-07-05T00:18:23.388Z,18.60
2017-07-05T00:18:28.403Z,18.70
2017-07-05T00:18:32.641Z,18.90
2017-07-05T00:18:36.898Z,18.95
2017-07-05T00:18:41.141Z,18.95
2017-07-05T00:18:45.388Z,18.90
2017-07-05T00:18:49.649Z,18.93
2017-07-05T00:18:53.893Z,18.90
2017-07-05T00:18:58.146Z,18.80
2017-07-05T00:19:02.402Z,18.85
2017-07-05T00:19:06.665Z,18.90
2017-07-05T00:19:10.912Z,18.95
2017-07-05T00:19:15.165Z,18.65
2017-07-05T00:19:19.426Z,18.85
2017-07-05T00:19:23.680Z,19.00
2017-07-05T00:19:27.970Z,19.05
2017-07-05T00:19:32.227Z,18.95
2017-07-05T00:19:36.487Z,19.07
2017-07-05T00:19:40.725Z,19.10
2017-07-05T00:19:45.023Z,19.10
2017-07-05T00:19:49.283Z,19.10
2017-07-05T00:19:53.517Z,19.03
2017-07-05T00:19:58.555Z,19.00
2017-07-05T00:20:02.802Z,19.00
2017-07-05T00:20:07.055Z,18.90
2017-07-05T00:20:11.297Z,19.13
2017-07-05T00:20:15.544Z,19.40
2017-07-05T00:20:19.785Z,19.30
2017-07-05T00:20:24.039Z,19.30
2017-07-05T00:20:29.046Z,19.20
2017-07-05T00:20:34.054Z,19.17
2017-07-05T00:20:38.319Z,19.17
2017-07-05T00:20:42.561Z,19.10
2017-07-05T00:20:46.795Z,19.05
2017-07-05T00:20:51.048Z,19.00
2017-07-05T00:20:55.308Z,18.90
2017-07-05T00:20:59.562Z,18.80
2017-07-05T00:21:03.812Z,18.65
2017-07-05T00:21:08.053Z,18.30
2017-07-05T00:21:12.315Z,17.80
2017-07-05T00:21:16.549Z,17.55
2017-07-05T00:21:20.795Z,17.65
2017-07-05T00:21:25.051Z,17.30
2017-07-05T00:21:29.290Z,17.50
2017-07-05T00:21:33.531Z,17.55
2017-07-05T00:21:37.795Z,17.55
2017-07-05T00:21:42.055Z,17.60
2017-07-05T00:21:46.311Z,17.70
2017-07-05T00:21:50.589Z,17.90
2017-07-05T00:21:54.860Z,18.30
2017-07-05T00:21:59.107Z,18.47
2017-07-05T00:22:03.341Z,18.50
2017-07-05T00:22:07.597Z,18.55
2017-07-05T00:22:11.837Z,18.80
2017-07-05T00:22:16.108Z,19.03
2017-07-05T00:22:20.349Z,19.10
2017-07-05T00:22:24.575Z,19.20
2017-07-05T00:22:28.840Z,19.37
2017-07-05T00:22:33.087Z,19.25
2017-07-05T00:22:37.335Z,19.15
2017-07-05T00:22:41.585Z,19.20
2017-07-05T00:22:45.851Z,19.20
2017-07-05T00:22:50.093Z,19.20
2017-07-05T00:22:54.345Z,19.20
2017-07-05T00:22:58.583Z,19.15
2017-07-05T00:23:02.854Z,19.20
2017-07-05T00:23:07.094Z,19.20
2017-07-05T00:23:11.328Z,19.20
2017-07-05T00:23:15.575Z,19.25
2017-07-05T00:23:20.572Z,18.93
2017-07-05T00:23:25.592Z,19.10
2017-07-05T00:23:29.841Z,19.23
2017-07-05T00:23:34.097Z,19.50
2017-07-05T00:23:38.519Z,19.50
2017-07-05T00:23:42.803Z,19.53
2017-07-05T00:23:47.835Z,19.60
2017-07-05T00:23:52.846Z,19.50
2017-07-05T00:23:57.856Z,19.53
2017-07-05T00:24:02.136Z,19.80
2017-07-05T00:24:06.391Z,19.80
2017-07-05T00:24:10.637Z,19.87
2017-07-05T00:24:14.879Z,19.75
2017-07-05T00:24:19.108Z,19.75
2017-07-05T00:24:23.352Z,19.60
2017-07-05T00:24:27.616Z,19.30
2017-07-05T00:24:31.883Z,18.95
2017-07-05T00:24:36.135Z,18.80
2017-07-05T00:24:40.391Z,18.60
2017-07-05T00:24:44.642Z,18.40
2017-07-05T00:24:48.893Z,18.10
2017-07-05T00:24:53.150Z,18.10
2017-07-05T00:24:57.438Z,18.10
2017-07-05T00:25:01.679Z,18.00
2017-07-05T00:25:05.932Z,18.05
2017-07-05T00:25:10.169Z,18.20
2017-07-05T00:25:15.183Z,18.23
2017-07-05T00:25:20.282Z,18.30
2017-07-05T00:25:24.540Z,18.97
2017-07-05T00:25:28.780Z,19.00
2017-07-05T00:25:33.020Z,19.20
2017-07-05T00:25:37.271Z,19.13
2017-07-05T00:25:41.524Z,19.20
2017-07-05T00:25:45.772Z,19.35
2017-07-05T00:25:49.999Z,19.60
2017-07-05T00:25:54.390Z,19.60
2017-07-05T00:25:58.629Z,19.50
2017-07-05T00:26:02.882Z,19.60
2017-07-05T00:26:07.122Z,19.67
2017-07-05T00:26:11.352Z,19.60
2017-07-05T00:26:15.610Z,19.45
2017-07-05T00:26:20.621Z,19.45
2017-07-05T00:26:25.619Z,19.33
2017-07-05T00:26:29.871Z,19.23
2017-07-05T00:26:34.128Z,19.10
2017-07-05T00:26:38.376Z,19.20
2017-07-05T00:26:42.623Z,19.40
2017-07-05T00:26:46.867Z,19.40
2017-07-05T00:26:51.147Z,19.13
2017-07-05T00:26:56.153Z,18.75
2017-07-05T00:27:01.179Z,18.63
2017-07-05T00:27:06.193Z,18.50
2017-07-05T00:27:11.207Z,18.70
2017-07-05T00:27:16.229Z,18.60
2017-07-05T00:27:21.233Z,18.47
2017-07-05T00:27:25.487Z,18.23
2017-07-05T00:27:29.735Z,18.25
2017-07-05T00:27:34.691Z,18.40
2017-07-05T00:27:38.937Z,18.17
2017-07-05T00:27:43.187Z,18.00
2017-07-05T00:27:47.417Z,17.70
2017-07-05T00:27:51.663Z,18.00
2017-07-05T00:27:55.923Z,18.10
2017-07-05T00:28:00.172Z,18.10
2017-07-05T00:28:04.409Z,17.95
2017-07-05T00:28:08.671Z,17.63
2017-07-05T00:28:12.916Z,17.60
2017-07-05T00:28:17.171Z,17.80
2017-07-05T00:28:21.413Z,17.70
2017-07-05T00:28:25.644Z,17.70
2017-07-05T00:28:29.889Z,17.70
2017-07-05T00:28:34.124Z,17.85
2017-07-05T00:28:38.365Z,18.20
2017-07-05T00:28:42.614Z,18.43
2017-07-05T00:28:46.852Z,18.90
2017-07-05T00:28:51.093Z,18.90
2017-07-05T00:28:55.340Z,19.00
2017-07-05T00:28:59.599Z,19.17
2017-07-05T00:29:03.857Z,19.25
2017-07-05T00:29:08.085Z,19.60
2017-07-05T00:29:12.334Z,19.70
2017-07-05T00:29:16.578Z,19.83
2017-07-05T00:29:20.831Z,19.75
2017-07-05T00:29:25.079Z,19.90
2017-07-05T00:29:29.345Z,20.10
2017-07-05T00:29:33.588Z,19.83
2017-07-05T00:29:37.824Z,19.90
2017-07-05T00:29:42.074Z,19.70
2017-07-05T00:29:46.330Z,19.40
2017-07-05T00:29:51.455Z,19.20
2017-07-05T00:29:55.758Z,18.97
2017-07-05T00:30:00.011Z,18.95
2017-07-05T00:30:04.256Z,18.97
2017-07-05T00:30:08.510Z,18.80
2017-07-05T00:30:12.755Z,18.70
2017-07-05T00:30:16.989Z,18.90
2017-07-05T00:30:21.263Z,19.17
2017-07-05T00:30:25.495Z,19.00
2017-07-05T00:30:29.729Z,18.75
2017-07-05T00:30:33.978Z,18.70
2017-07-05T00:30:38.237Z,18.70
2017-07-05T00:30:42.474Z,18.90
2017-07-05T00:30:46.721Z,18.80
2017-07-05T00:30:50.961Z,18.95
2017-07-05T00:30:55.242Z,19.17
2017-07-05T00:30:59.501Z,19.30
2017-07-05T00:31:03.732Z,19.45
2017-07-05T00:31:07.969Z,19.40
2017-07-05T00:31:12.224Z,19.33
2017-07-05T00:31:16.484Z,19.00
2017-07-05T00:31:21.489Z,19.05
2017-07-05T00:31:25.749Z,19.00
2017-07-05T00:31:30.003Z,19.23
2017-07-05T00:31:35.026Z,19.25
2017-07-05T00:31:40.042Z,18.87
2017-07-05T00:31:45.057Z,18.97
2017-07-05T00:31:50.078Z,19.03
2017-07-05T00:31:55.088Z,19.10
2017-07-05T00:32:00.104Z,18.93
2017-07-05T00:32:05.127Z,18.63
2017-07-05T00:32:10.152Z,18.43
2017-07-05T00:32:15.154Z,18.47
2017-07-05T00:32:19.407Z,18.23
2017-07-05T00:32:23.669Z,18.35
2017-07-05T00:32:27.917Z,18.77
2017-07-05T00:32:32.192Z,18.80
2017-07-05T00:32:37.216Z,18.90
2017-07-05T00:32:41.446Z,19.07
2017-07-05T00:32:45.726Z,18.77
2017-07-05T00:32:49.960Z,18.60
2017-07-05T00:32:54.220Z,18.85
2017-07-05T00:32:58.475Z,18.90
2017-07-05T00:33:02.735Z,19.03
2017-07-05T00:33:06.991Z,19.20
2017-07-05T00:33:11.997Z,19.30
2017-07-05T00:33:17.016Z,19.20
2017-07-05T00:33:22.037Z,19.00
2017-07-05T00:33:26.284Z,18.60
2017-07-05T00:33:30.557Z,18.47
2017-07-05T00:33:34.797Z,18.35
2017-07-05T00:33:39.052Z,18.15
2017-07-05T00:33:44.071Z,18.30
2017-07-05T00:33:49.083Z,18.50
2017-07-05T00:33:54.095Z,18.30
2017-07-05T00:33:59.111Z,18.17
2017-07-05T00:34:04.109Z,18.87
2017-07-05T00:34:08.370Z,19.03
2017-07-05T00:34:12.639Z,19.47
2017-07-05T00:34:17.662Z,19.60
2017-07-05T00:34:21.926Z,20.13
2017-07-05T00:34:26.179Z,20.30
2017-07-05T00:34:30.437Z,19.77
2017-07-05T00:34:34.673Z,19.40
2017-07-05T00:34:38.917Z,19.85
2017-07-05T00:34:43.171Z,19.80
2017-07-05T00:34:47.436Z,19.50
2017-07-05T00:34:51.684Z,19.50
2017-07-05T00:34:55.917Z,19.55
2017-07-05T00:35:00.160Z,18.75
2017-07-05T00:35:04.422Z,18.70
2017-07-05T00:35:08.663Z,18.65
2017-07-05T00:35:13.680Z,18.25
2017-07-05T00:35:17.909Z,18.23
2017-07-05T00:35:22.190Z,18.20
2017-07-05T00:35:26.450Z,18.35
2017-07-05T00:35:30.691Z,18.30
2017-07-05T00:35:34.943Z,18.15
2017-07-05T00:35:39.199Z,18.20
2017-07-05T00:35:43.447Z,18.20
2017-07-05T00:35:47.731Z,18.05
2017-07-05T00:35:52.011Z,17.90
2017-07-05T00:35:56.273Z,17.87
2017-07-05T00:36:01.299Z,17.90
2017-07-05T00:36:06.301Z,17.63
2017-07-05T00:36:11.307Z,17.67
2017-07-05T00:36:15.541Z,17.80
2017-07-05T00:36:19.799Z,17.60
2017-07-05T00:36:24.106Z,17.80
2017-07-05T00:36:28.362Z,17.90
2017-07-05T00:36:32.593Z,18.25
2017-07-05T00:36:36.833Z,18.15
2017-07-05T00:36:41.106Z,18.10
2017-07-05T00:36:45.374Z,18.20
2017-07-05T00:36:49.602Z,18.50
2017-07-05T00:36:53.855Z,18.70
2017-07-05T00:36:58.093Z,18.70
2017-07-05T00:37:02.332Z,18.45
2017-07-05T00:37:06.600Z,18.40
2017-07-05T00:37:10.860Z,18.50
2017-07-05T00:37:15.128Z,18.60
2017-07-05T00:37:19.366Z,18.75
2017-07-05T00:37:23.601Z,18.70
2017-07-05T00:37:27.868Z,18.53
2017-07-05T00:37:32.111Z,18.30
2017-07-05T00:37:36.374Z,18.45
2017-07-05T00:37:40.634Z,18.40
2017-07-05T00:37:45.642Z,18.40
2017-07-05T00:37:50.658Z,18.57
2017-07-05T00:37:55.679Z,18.63
2017-07-05T00:38:00.689Z,18.60
2017-07-05T00:38:05.725Z,18.80
2017-07-05T00:38:09.994Z,18.97
2017-07-05T00:38:14.234Z,19.05
2017-07-05T00:38:18.461Z,19.35
2017-07-05T00:38:22.728Z,19.20
2017-07-05T00:38:26.970Z,19.30
2017-07-05T00:38:31.223Z,19.40
2017-07-05T00:38:36.235Z,19.10
2017-07-05T00:38:41.256Z,18.93
2017-07-05T00:38:46.257Z,18.70
2017-07-05T00:38:50.542Z,18.33
2017-07-05T00:38:54.805Z,18.20
2017-07-05T00:38:59.040Z,18.35
2017-07-05T00:39:03.272Z,18.30
2017-07-05T00:39:08.285Z,18.30
2017-07-05T00:39:13.287Z,18.00
2017-07-05T00:39:17.539Z,17.77
2017-07-05T00:39:21.846Z,17.80
2017-07-05T00:39:26.075Z,17.95
2017-07-05T00:39:30.342Z,18.07
2017-07-05T00:39:34.587Z,18.20
2017-07-05T00:39:38.824Z,18.40
2017-07-05T00:39:43.057Z,18.55
2017-07-05T00:39:47.309Z,18.73
2017-07-05T00:39:52.367Z,19.00
2017-07-05T00:39:56.613Z,19.00
2017-07-05T00:40:01.642Z,18.90
2017-07-05T00:40:06.648Z,18.90
2017-07-05T00:40:10.897Z,18.87
2017-07-05T00:40:15.163Z,18.70
2017-07-05T00:40:20.161Z,18.60
2017-07-05T00:40:25.707Z,18.47
2017-07-05T00:40:30.714Z,18.33
2017-07-05T00:40:34.941Z,18.37
2017-07-05T00:40:39.197Z,18.10
2017-07-05T00:40:43.443Z,18.10
2017-07-05T00:40:47.691Z,17.95
2017-07-05T00:40:51.965Z,17.80
2017-07-05T00:40:56.200Z,17.80
2017-07-05T00:41:00.450Z,18.00
2017-07-05T00:41:04.701Z,18.35
2017-07-05T00:41:09.729Z,18.27
2017-07-05T00:41:13.984Z,18.37
2017-07-05T00:41:18.228Z,18.40
2017-07-05T00:41:22.490Z,18.30
2017-07-05T00:41:26.739Z,18.25
2017-07-05T00:41:31.741Z,18.23
2017-07-05T00:41:35.983Z,18.33
2017-07-05T00:41:40.239Z,18.50
2017-07-05T00:41:44.477Z,18.70
2017-07-05T00:41:49.478Z,18.75
2017-07-05T00:41:54.496Z,18.70
2017-07-05T00:41:59.493Z,18.70
2017-07-05T00:42:03.762Z,18.35
2017-07-05T00:42:08.020Z,18.00
2017-07-05T00:42:12.271Z,17.90
2017-07-05T00:42:16.501Z,17.80
2017-07-05T00:42:20.740Z,17.87
2017-07-05T00:42:24.995Z,18.15
2017-07-05T00:42:29.259Z,18.20
2017-07-05T00:42:39.027Z,18.30
2017-07-05T00:42:43.295Z,18.21
2017-07-05T00:42:47.530Z,18.20
2017-07-05T00:42:51.783Z,18.33
2017-07-05T00:42:56.036Z,18.20
2017-07-05T00:43:00.268Z,18.30
2017-07-05T00:43:04.536Z,18.40
2017-07-05T00:43:08.784Z,18.57
2017-07-05T00:43:13.016Z,18.90
2017-07-05T00:43:17.309Z,18.90
2017-07-05T00:43:21.520Z,18.80
2017-07-05T00:43:25.783Z,18.40
2017-07-05T00:43:30.012Z,18.25
2017-07-05T00:43:34.260Z,18.20
2017-07-05T00:43:38.531Z,18.10
2017-07-05T00:43:42.791Z,17.65
2017-07-05T00:43:47.039Z,17.60
2017-07-05T00:43:51.277Z,17.60
2017-07-05T00:43:55.539Z,17.60
2017-07-05T00:43:59.790Z,17.60
2017-07-05T00:44:04.039Z,17.50
2017-07-05T00:44:08.287Z,17.55
2017-07-05T00:44:12.533Z,17.40
2017-07-05T00:44:16.791Z,17.45
2017-07-05T00:44:21.021Z,17.65
2017-07-05T00:44:25.264Z,17.80
2017-07-05T00:44:29.521Z,17.90
2017-07-05T00:44:33.772Z,17.85
2017-07-05T00:44:38.013Z,17.90
2017-07-05T00:44:42.264Z,18.13
2017-07-05T00:44:46.515Z,18.35
2017-07-05T00:44:50.753Z,18.40
2017-07-05T00:44:55.779Z,18.60
2017-07-05T00:45:00.022Z,18.57
2017-07-05T00:45:04.305Z,18.60
2017-07-05T00:45:08.551Z,18.60
2017-07-05T00:45:12.803Z,18.60
2017-07-05T00:45:17.044Z,18.65
2017-07-05T00:45:21.293Z,18.47
2017-07-05T00:45:25.529Z,18.40
2017-07-05T00:45:29.769Z,18.40
2017-07-05T00:45:34.795Z,18.30
2017-07-05T00:45:39.811Z,18.30
2017-07-05T00:45:44.116Z,18.37
2017-07-05T00:45:48.324Z,18.35
2017-07-05T00:45:52.656Z,18.30
2017-07-05T00:45:56.905Z,18.20
2017-07-05T00:46:01.943Z,18.50
2017-07-05T00:46:06.198Z,18.40
2017-07-05T00:46:10.461Z,18.50
2017-07-05T00:46:14.717Z,18.55
2017-07-05T00:46:19.735Z,18.57
2017-07-05T00:46:24.007Z,18.63
2017-07-05T00:46:28.221Z,18.70
2017-07-05T00:46:32.479Z,18.90
2017-07-05T00:46:36.709Z,19.00
2017-07-05T00:46:40.954Z,18.70
2017-07-05T00:46:45.205Z,18.50
2017-07-05T00:46:49.441Z,18.20
2017-07-05T00:46:53.734Z,18.10
2017-07-05T00:46:58.752Z,17.87
2017-07-05T00:47:03.002Z,17.47
2017-07-05T00:47:07.246Z,17.50
2017-07-05T00:47:11.497Z,17.20
2017-07-05T00:47:17.183Z,17.05
2017-07-05T00:47:21.436Z,17.00
2017-07-05T00:47:25.666Z,17.00
2017-07-05T00:47:29.917Z,16.90
2017-07-05T00:47:34.157Z,16.80
2017-07-05T00:47:38.415Z,17.05
2017-07-05T00:47:42.688Z,17.37
2017-07-05T00:47:47.701Z,17.40
2017-07-05T00:47:52.717Z,17.40
2017-07-05T00:47:56.970Z,17.30
2017-07-05T00:48:01.220Z,17.65
2017-07-05T00:48:05.473Z,17.80
2017-07-05T00:48:09.720Z,18.17
2017-07-05T00:48:14.742Z,18.30
2017-07-05T00:48:19.771Z,18.10
2017-07-05T00:48:24.797Z,18.10
2017-07-05T00:48:29.038Z,18.17
2017-07-05T00:48:34.017Z,18.23
2017-07-05T00:48:38.282Z,17.95
2017-07-05T00:48:42.540Z,17.70
2017-07-05T00:48:46.776Z,17.65
2017-07-05T00:48:51.016Z,17.85
2017-07-05T00:48:55.260Z,17.95
2017-07-05T00:48:59.539Z,18.07
2017-07-05T00:49:03.765Z,18.00
2017-07-05T00:49:08.013Z,18.00
2017-07-05T00:49:12.285Z,18.07
2017-07-05T00:49:16.525Z,18.05
2017-07-05T00:49:20.787Z,17.80
2017-07-05T00:49:25.027Z,17.95
2017-07-05T00:49:29.285Z,17.87
2017-07-05T00:49:33.528Z,18.25
2017-07-05T00:49:37.784Z,18.30
2017-07-05T00:49:42.032Z,18.20
2017-07-05T00:49:46.279Z,18.10
2017-07-05T00:49:50.530Z,18.15
2017-07-05T00:49:54.780Z,18.30
2017-07-05T00:49:59.010Z,18.15
2017-07-05T00:50:03.282Z,18.10
2017-07-05T00:50:07.519Z,17.90
2017-07-05T00:50:11.761Z,17.80
2017-07-05T00:50:16.028Z,17.60
2017-07-05T00:50:20.277Z,17.87
2017-07-05T00:50:24.513Z,17.85
2017-07-05T00:50:28.772Z,17.80
2017-07-05T00:50:33.006Z,17.63
2017-07-05T00:50:37.257Z,17.75
2017-07-05T00:50:41.515Z,18.15
2017-07-05T00:50:45.771Z,18.15
2017-07-05T00:50:50.031Z,18.07
2017-07-05T00:50:54.275Z,18.00
2017-07-05T00:50:58.533Z,18.25
2017-07-05T00:51:02.762Z,18.60
2017-07-05T00:51:07.031Z,18.57
2017-07-05T00:51:11.284Z,18.70
2017-07-05T00:51:15.523Z,18.75
2017-07-05T00:51:19.770Z,19.00
2017-07-05T00:51:24.030Z,19.00
2017-07-05T00:51:28.266Z,18.75
2017-07-05T00:51:32.511Z,18.50
2017-07-05T00:51:37.531Z,17.90
2017-07-05T00:51:42.545Z,17.80
2017-07-05T00:51:47.541Z,18.00
2017-07-05T00:51:52.600Z,18.10
2017-07-05T00:51:56.839Z,18.07
2017-07-05T00:52:01.091Z,17.70
2017-07-05T00:52:06.100Z,17.85
2017-07-05T00:52:11.127Z,18.00
2017-07-05T00:52:15.377Z,18.10
2017-07-05T00:52:19.611Z,18.07
2017-07-05T00:52:24.613Z,18.20
2017-07-05T00:52:28.863Z,18.30
2017-07-05T00:52:33.104Z,18.35
2017-07-05T00:52:37.393Z,18.40
2017-07-05T00:52:41.637Z,18.23
2017-07-05T00:52:45.877Z,18.00
2017-07-05T00:52:50.117Z,17.75
2017-07-05T00:52:55.169Z,17.55
2017-07-05T00:52:59.433Z,17.53
2017-07-05T00:53:03.716Z,17.23
2017-07-05T00:53:07.952Z,17.10
2017-07-05T00:53:12.974Z,16.90
2017-07-05T00:53:17.227Z,16.97
2017-07-05T00:53:21.482Z,16.80
2017-07-05T00:53:25.758Z,16.55
2017-07-05T00:53:30.752Z,16.60
2017-07-05T00:53:35.010Z,16.50
2017-07-05T00:53:39.253Z,16.55
2017-07-05T00:53:43.500Z,16.60
2017-07-05T00:53:47.759Z,16.90
2017-07-05T00:53:52.017Z,17.10
2017-07-05T00:53:56.661Z,17.10
2017-07-05T00:54:00.881Z,17.40
2017-07-05T00:54:05.113Z,17.35
2017-07-05T00:54:09.378Z,17.30
2017-07-05T00:54:13.630Z,17.15
2017-07-05T00:54:17.865Z,17.05
2017-07-05T00:54:22.122Z,17.45
2017-07-05T00:54:26.375Z,17.57
2017-07-05T00:54:30.646Z,17.60
2017-07-05T00:54:34.891Z,17.65
2017-07-05T00:54:39.133Z,17.70
2017-07-05T00:54:43.387Z,17.40
2017-07-05T00:54:48.416Z,17.10
2017-07-05T00:54:53.432Z,16.97
2017-07-05T00:54:57.653Z,16.87
2017-07-05T00:55:01.893Z,16.70
2017-07-05T00:55:06.141Z,16.80
2017-07-05T00:55:10.397Z,16.65
2017-07-05T00:55:14.644Z,16.95
2017-07-05T00:55:18.895Z,16.95
2017-07-05T00:55:23.153Z,16.77
2017-07-05T00:55:27.407Z,16.85
2017-07-05T00:55:31.645Z,17.00
2017-07-05T00:55:35.901Z,17.23
2017-07-05T00:55:40.152Z,17.45
2017-07-05T00:55:44.400Z,17.80
2017-07-05T00:55:48.633Z,17.95
2017-07-05T00:55:53.662Z,18.30
2017-07-05T00:55:57.939Z,18.33
2017-07-05T00:56:02.207Z,18.50
2017-07-05T00:56:06.449Z,18.55
2017-07-05T00:56:10.757Z,18.85
2017-07-05T00:56:15.766Z,18.97
2017-07-05T00:56:20.777Z,19.07
2017-07-05T00:56:25.807Z,19.10
2017-07-05T00:56:30.812Z,19.10
2017-07-05T00:56:35.840Z,18.83
2017-07-05T00:56:40.861Z,18.63
2017-07-05T00:56:45.878Z,18.47
2017-07-05T00:56:50.163Z,18.33